Time,TemperatureF,DewpointF,PressureIn,WindDirection,WindDirectionDegrees,WindSpeedMPH,WindSpeedGustMPH,Humidity,HourlyPrecipIn,Conditions,Clouds,dailyrainin,SoftwareType,DateUTC
2013-03-04 00:00:00,50.7,37.8,30.05,NW,315,0.0,0.0,61,0.00,,---,0.02,VWS V13.01,2013-03-04 05:00:00,
2013-03-04 00:05:00,50.7,37.8,30.05,NW,315,0.0,0.0,61,0.00,,---,0.02,VWS V13.01,2013-03-04 05:05:00,
2013-03-04 00:10:00,50.7,37.8,30.05,NW,315,0.0,0.0,61,0.00,,---,0.02,VWS V13.01,2013-03-04 05:10:00,
2013-03-04 00:15:00,50.7,38.2,30.05,WNW,292,0.0,0.0,62,0.00,,---,0.02,VWS V13.01,2013-03-04 05:15:00,
2013-03-04 00:20:00,50.7,38.2,30.05,WNW,292,0.0,0.0,62,0.00,,---,0.02,VWS V13.01,2013-03-04 05:20:00,
2013-03-04 00:25:00,50.7,38.2,30.05,NW,315,0.0,0.0,62,0.00,,---,0.02,VWS V13.01,2013-03-04 05:25:00,
2013-03-04 00:30:00,50.7,38.2,30.05,NNW,338,0.0,0.0,62,0.00,,---,0.02,VWS V13.01,2013-03-04 05:30:00,
2013-03-04 00:35:00,50.5,38.0,30.05,WNW,292,0.0,0.0,62,0.00,,---,0.02,VWS V13.01,2013-03-04 05:35:00,
2013-03-04 00:40:00,50.5,38.0,30.05,NNW,338,0.0,0.0,62,0.00,,---,0.02,VWS V13.01,2013-03-04 05:40:00,
2013-03-04 00:45:00,50.4,37.8,30.05,WNW,292,0.0,0.0,62,0.00,,---,0.02,VWS V13.01,2013-03-04 05:45:00,
2013-03-04 00:50:00,50.4,37.8,30.04,NNW,338,0.0,0.0,62,0.00,,---,0.02,VWS V13.01,2013-03-04 05:50:00,
2013-03-04 00:55:00,50.2,37.7,30.04,NW,315,0.0,0.0,62,0.00,,---,0.02,VWS V13.01,2013-03-04 05:55:00,
2013-03-04 01:00:00,50.2,38.1,30.05,NW,315,0.0,0.0,63,0.00,,---,0.02,VWS V13.01,2013-03-04 06:00:00,
2013-03-04 01:05:00,50.2,38.1,30.05,NW,315,0.0,0.0,63,0.00,,---,0.02,VWS V13.01,2013-03-04 06:05:00,
2013-03-04 01:10:00,50.0,37.9,30.05,NW,315,0.0,0.0,63,0.00,,---,0.02,VWS V13.01,2013-03-04 06:10:00,
2013-03-04 01:15:00,49.6,37.2,30.06,North,0,0.0,0.0,62,0.00,,---,0.02,VWS V13.01,2013-03-04 06:15:00,
2013-03-04 01:20:00,49.6,37.2,30.05,NNW,338,0.0,0.0,62,0.00,,---,0.02,VWS V13.01,2013-03-04 06:20:00,
2013-03-04 01:25:00,49.6,37.2,30.05,NNW,338,0.0,0.0,62,0.00,,---,0.02,VWS V13.01,2013-03-04 06:25:00,
2013-03-04 01:30:00,49.6,36.8,30.05,NNW,338,0.0,0.0,61,0.00,,---,0.02,VWS V13.01,2013-03-04 06:30:00,
2013-03-04 01:35:00,49.5,36.6,30.05,NW,315,0.0,0.0,61,0.00,,---,0.02,VWS V13.01,2013-03-04 06:35:00,
2013-03-04 01:40:00,49.1,36.2,30.05,NNW,338,0.0,0.0,61,0.00,,---,0.02,VWS V13.01,2013-03-04 06:40:00,
2013-03-04 01:45:00,49.1,36.7,30.05,NNW,338,0.0,0.0,62,0.00,,---,0.02,VWS V13.01,2013-03-04 06:45:00,
2013-03-04 01:50:00,48.9,36.5,30.05,NW,315,0.0,0.0,62,0.00,,---,0.02,VWS V13.01,2013-03-04 06:50:00,
2013-03-04 01:55:00,48.7,35.9,30.05,North,0,0.0,0.0,61,0.00,,---,0.02,VWS V13.01,2013-03-04 06:55:00,
2013-03-04 02:00:00,48.6,35.7,30.05,NNW,338,0.0,0.0,61,0.00,,---,0.02,VWS V13.01,2013-03-04 07:00:00,
2013-03-04 02:05:00,48.4,35.6,30.05,NNW,338,0.0,0.0,61,0.00,,---,0.02,VWS V13.01,2013-03-04 07:05:00,
2013-03-04 02:10:00,48.4,35.6,30.05,NW,315,0.0,0.0,61,0.00,,---,0.02,VWS V13.01,2013-03-04 07:10:00,
2013-03-04 02:15:00,48.0,35.2,30.04,NW,315,0.0,0.0,61,0.00,,---,0.02,VWS V13.01,2013-03-04 07:15:00,
2013-03-04 02:20:00,47.8,35.1,30.04,NW,315,0.0,0.0,61,0.00,,---,0.02,VWS V13.01,2013-03-04 07:20:00,
2013-03-04 02:25:00,47.8,35.1,30.04,NNW,338,0.0,0.0,61,0.00,,---,0.02,VWS V13.01,2013-03-04 07:25:00,
2013-03-04 02:30:00,47.7,34.9,30.04,NW,315,0.0,0.0,61,0.00,,---,0.02,VWS V13.01,2013-03-04 07:30:00,
2013-03-04 02:35:00,47.3,34.5,30.04,North,0,0.0,0.0,61,0.00,,---,0.02,VWS V13.01,2013-03-04 07:35:00,
2013-03-04 02:40:00,47.3,34.5,30.04,NNW,338,0.0,0.0,61,0.00,,---,0.02,VWS V13.01,2013-03-04 07:40:00,
2013-03-04 02:45:00,47.1,34.4,30.04,WNW,292,0.0,0.0,61,0.00,,---,0.02,VWS V13.01,2013-03-04 07:45:00,
2013-03-04 02:50:00,47.1,34.8,30.04,North,0,0.0,0.0,62,0.00,,---,0.02,VWS V13.01,2013-03-04 07:50:00,
2013-03-04 02:55:00,47.1,34.8,30.04,NNW,338,0.0,0.0,62,0.00,,---,0.02,VWS V13.01,2013-03-04 07:55:00,
2013-03-04 03:00:00,46.9,35.0,30.04,NNW,338,0.0,0.0,63,0.00,,---,0.02,VWS V13.01,2013-03-04 08:00:00,
2013-03-04 03:05:00,46.8,34.8,30.04,NNW,338,0.0,0.0,63,0.00,,---,0.02,VWS V13.01,2013-03-04 08:05:00,
2013-03-04 03:10:00,46.8,34.8,30.04,NNW,338,0.0,0.0,63,0.00,,---,0.02,VWS V13.01,2013-03-04 08:10:00,
2013-03-04 03:15:00,46.8,34.8,30.03,NNW,338,0.0,0.0,63,0.00,,---,0.02,VWS V13.01,2013-03-04 08:15:00,
2013-03-04 03:20:00,46.4,34.1,30.04,NNW,338,0.0,0.0,62,0.00,,---,0.02,VWS V13.01,2013-03-04 08:20:00,
2013-03-04 03:25:00,46.0,33.8,30.04,WNW,292,0.0,0.0,62,0.00,,---,0.02,VWS V13.01,2013-03-04 08:25:00,
2013-03-04 03:30:00,46.0,33.8,30.04,NW,315,0.0,0.0,62,0.00,,---,0.02,VWS V13.01,2013-03-04 08:30:00,
2013-03-04 03:35:00,46.0,33.8,30.04,NW,315,0.0,0.0,62,0.00,,---,0.02,VWS V13.01,2013-03-04 08:35:00,
2013-03-04 03:40:00,45.9,33.6,30.04,NW,315,0.0,0.0,62,0.00,,---,0.02,VWS V13.01,2013-03-04 08:40:00,
2013-03-04 03:45:00,45.7,33.4,30.04,NNW,338,0.0,0.0,62,0.00,,---,0.02,VWS V13.01,2013-03-04 08:45:00,
2013-03-04 03:50:00,45.5,33.2,30.04,NW,315,0.0,0.0,62,0.00,,---,0.02,VWS V13.01,2013-03-04 08:50:00,
2013-03-04 03:55:00,45.5,33.2,30.04,NNW,338,0.0,0.0,62,0.00,,---,0.02,VWS V13.01,2013-03-04 08:55:00,
2013-03-04 04:00:00,45.3,33.5,30.04,NNW,338,0.0,0.0,63,0.00,,---,0.02,VWS V13.01,2013-03-04 09:00:00,
2013-03-04 04:05:00,45.3,33.5,30.04,NW,315,0.0,0.0,63,0.00,,---,0.02,VWS V13.01,2013-03-04 09:05:00,
2013-03-04 04:10:00,45.1,33.3,30.04,North,0,0.0,0.0,63,0.00,,---,0.02,VWS V13.01,2013-03-04 09:10:00,
2013-03-04 04:15:00,45.0,33.1,30.04,NNW,338,0.0,0.0,63,0.00,,---,0.02,VWS V13.01,2013-03-04 09:15:00,
2013-03-04 04:20:00,45.0,33.1,30.04,NW,315,0.0,0.0,63,0.00,,---,0.02,VWS V13.01,2013-03-04 09:20:00,
2013-03-04 04:25:00,45.0,32.7,30.05,NNW,338,0.0,0.0,62,0.00,,---,0.02,VWS V13.01,2013-03-04 09:25:00,
2013-03-04 04:30:00,45.0,32.3,30.05,NW,315,0.0,0.0,61,0.00,,---,0.02,VWS V13.01,2013-03-04 09:30:00,
2013-03-04 04:35:00,45.0,32.3,30.05,NNW,338,0.0,0.0,61,0.00,,---,0.02,VWS V13.01,2013-03-04 09:35:00,
2013-03-04 04:40:00,45.0,31.9,30.05,NW,315,0.0,0.0,60,0.00,,---,0.02,VWS V13.01,2013-03-04 09:40:00,
2013-03-04 04:45:00,44.8,31.8,30.06,NNW,338,0.0,0.0,60,0.00,,---,0.02,VWS V13.01,2013-03-04 09:45:00,
2013-03-04 04:50:00,44.8,31.3,30.06,NW,315,0.0,0.0,59,0.00,,---,0.02,VWS V13.01,2013-03-04 09:50:00,
2013-03-04 04:55:00,44.8,31.3,30.06,West,270,0.0,0.0,59,0.00,,---,0.02,VWS V13.01,2013-03-04 09:55:00,
2013-03-04 05:00:00,44.6,31.2,30.06,NW,315,0.0,0.0,59,0.00,,---,0.02,VWS V13.01,2013-03-04 10:00:00,
2013-03-04 05:05:00,44.4,31.4,30.06,NW,315,0.0,0.0,60,0.00,,---,0.02,VWS V13.01,2013-03-04 10:05:00,
2013-03-04 05:10:00,44.4,31.4,30.06,West,270,0.0,0.0,60,0.00,,---,0.02,VWS V13.01,2013-03-04 10:10:00,
2013-03-04 05:15:00,44.2,31.2,30.07,NW,315,0.0,0.0,60,0.00,,---,0.02,VWS V13.01,2013-03-04 10:15:00,
2013-03-04 05:20:00,44.2,31.7,30.07,NW,315,0.0,0.0,61,0.00,,---,0.02,VWS V13.01,2013-03-04 10:20:00,
2013-03-04 05:25:00,44.1,31.9,30.07,NW,315,0.0,0.0,62,0.00,,---,0.02,VWS V13.01,2013-03-04 10:25:00,
2013-03-04 05:30:00,44.1,31.9,30.07,NW,315,0.0,0.0,62,0.00,,---,0.02,VWS V13.01,2013-03-04 10:30:00,
2013-03-04 05:35:00,43.9,32.1,30.07,NW,315,0.0,0.0,63,0.00,,---,0.02,VWS V13.01,2013-03-04 10:35:00,
2013-03-04 05:40:00,43.7,32.0,30.07,NW,315,0.0,0.0,63,0.00,,---,0.02,VWS V13.01,2013-03-04 10:40:00,
2013-03-04 05:45:00,43.7,32.3,30.07,NW,315,0.0,0.0,64,0.00,,---,0.02,VWS V13.01,2013-03-04 10:45:00,
2013-03-04 05:50:00,43.5,32.2,30.07,NW,315,0.0,0.0,64,0.00,,---,0.02,VWS V13.01,2013-03-04 10:50:00,
2013-03-04 05:55:00,43.3,32.0,30.08,NW,315,0.0,0.0,64,0.00,,---,0.02,VWS V13.01,2013-03-04 10:55:00,
2013-03-04 06:00:00,43.3,32.0,30.07,NW,315,0.0,0.0,64,0.00,,---,0.02,VWS V13.01,2013-03-04 11:00:00,
2013-03-04 06:05:00,43.2,32.2,30.07,NW,315,0.0,0.0,65,0.00,,---,0.02,VWS V13.01,2013-03-04 11:05:00,
2013-03-04 06:10:00,43.2,32.2,30.08,WSW,248,0.0,0.0,65,0.00,,---,0.02,VWS V13.01,2013-03-04 11:10:00,
2013-03-04 06:15:00,43.2,32.2,30.08,WSW,248,0.0,0.0,65,0.00,,---,0.02,VWS V13.01,2013-03-04 11:15:00,
2013-03-04 06:20:00,43.2,32.2,30.08,WSW,248,0.0,0.0,65,0.00,,---,0.02,VWS V13.01,2013-03-04 11:20:00,
2013-03-04 06:25:00,43.2,32.2,30.09,WSW,248,0.0,0.0,65,0.00,,---,0.02,VWS V13.01,2013-03-04 11:25:00,
2013-03-04 06:30:00,43.0,32.0,30.09,West,270,0.0,0.0,65,0.00,,---,0.02,VWS V13.01,2013-03-04 11:30:00,
2013-03-04 06:35:00,43.0,32.0,30.09,West,270,0.0,0.0,65,0.00,,---,0.02,VWS V13.01,2013-03-04 11:35:00,
2013-03-04 06:40:00,43.0,32.0,30.09,West,270,0.0,0.0,65,0.00,,---,0.02,VWS V13.01,2013-03-04 11:40:00,
2013-03-04 06:45:00,43.0,32.0,30.10,West,270,0.0,0.0,65,0.00,,---,0.02,VWS V13.01,2013-03-04 11:45:00,
2013-03-04 06:50:00,43.0,32.0,30.10,West,270,0.0,0.0,65,0.00,,---,0.02,VWS V13.01,2013-03-04 11:50:00,
2013-03-04 06:55:00,43.0,32.0,30.10,WNW,292,0.0,0.0,65,0.00,,---,0.02,VWS V13.01,2013-03-04 11:55:00,
2013-03-04 07:00:00,43.0,32.4,30.10,WNW,292,0.0,0.0,66,0.00,,---,0.00,VWS V13.01,2013-03-04 12:00:00,
2013-03-04 07:05:00,43.0,32.4,30.10,WNW,292,0.0,0.0,66,0.00,,---,0.00,VWS V13.01,2013-03-04 12:05:00,
2013-03-04 07:10:00,43.2,32.6,30.10,WNW,292,0.0,0.0,66,0.00,,---,0.00,VWS V13.01,2013-03-04 12:10:00,
2013-03-04 07:15:00,43.3,32.8,30.10,NNW,338,0.0,0.0,66,0.00,,---,0.00,VWS V13.01,2013-03-04 12:15:00,
2013-03-04 07:20:00,43.5,32.9,30.10,NW,315,0.0,0.0,66,0.00,,---,0.00,VWS V13.01,2013-03-04 12:20:00,
2013-03-04 07:25:00,43.7,32.7,30.11,NNW,338,0.0,0.0,65,0.00,,---,0.00,VWS V13.01,2013-03-04 12:25:00,
2013-03-04 07:30:00,44.1,33.1,30.11,NNW,338,0.0,0.0,65,0.00,,---,0.00,VWS V13.01,2013-03-04 12:30:00,
2013-03-04 07:35:00,44.8,33.8,30.11,NNW,338,0.0,0.0,65,0.00,,---,0.00,VWS V13.01,2013-03-04 12:35:00,
2013-03-04 07:40:00,45.3,33.9,30.11,NNW,338,0.0,0.0,64,0.00,,---,0.00,VWS V13.01,2013-03-04 12:40:00,
2013-03-04 07:45:00,45.5,33.7,30.11,North,0,0.0,0.0,63,0.00,,---,0.00,VWS V13.01,2013-03-04 12:45:00,
2013-03-04 07:50:00,46.4,34.1,30.12,NNW,338,0.0,0.0,62,0.00,,---,0.00,VWS V13.01,2013-03-04 12:50:00,
2013-03-04 07:55:00,47.1,34.0,30.12,NW,315,0.0,0.0,60,0.00,,---,0.00,VWS V13.01,2013-03-04 12:55:00,
2013-03-04 08:00:00,47.5,33.5,30.12,NNW,338,0.0,0.0,58,0.00,,---,0.00,VWS V13.01,2013-03-04 13:00:00,
2013-03-04 08:05:00,48.2,33.7,30.12,NW,315,0.0,0.0,57,0.00,,---,0.00,VWS V13.01,2013-03-04 13:05:00,
2013-03-04 08:10:00,48.7,33.8,30.11,NNW,338,0.0,0.0,56,0.00,,---,0.00,VWS V13.01,2013-03-04 13:10:00,
2013-03-04 08:15:00,49.1,32.7,30.12,NNW,338,0.0,0.0,53,0.00,,---,0.00,VWS V13.01,2013-03-04 13:15:00,
2013-03-04 08:20:00,49.6,32.8,30.12,WNW,292,0.0,0.0,52,0.00,,---,0.00,VWS V13.01,2013-03-04 13:20:00,
2013-03-04 08:25:00,50.2,32.8,30.12,North,0,0.0,0.0,51,0.00,,---,0.00,VWS V13.01,2013-03-04 13:25:00,
2013-03-04 08:30:00,50.4,32.9,30.12,North,0,0.0,0.0,51,0.00,,---,0.00,VWS V13.01,2013-03-04 13:30:00,
2013-03-04 08:35:00,50.7,32.8,30.12,NW,315,0.0,0.0,50,0.00,,---,0.00,VWS V13.01,2013-03-04 13:35:00,
2013-03-04 08:40:00,51.1,32.1,30.12,NNW,338,0.0,0.0,48,0.00,,---,0.00,VWS V13.01,2013-03-04 13:40:00,
2013-03-04 08:45:00,51.3,31.7,30.12,ENE,68,0.0,0.0,47,0.00,,---,0.00,VWS V13.01,2013-03-04 13:45:00,
2013-03-04 08:50:00,51.4,31.9,30.12,North,0,0.0,0.0,47,0.00,,---,0.00,VWS V13.01,2013-03-04 13:50:00,
2013-03-04 08:55:00,52.0,31.9,30.12,North,0,0.0,0.0,46,0.00,,---,0.00,VWS V13.01,2013-03-04 13:55:00,
2013-03-04 09:00:00,52.0,31.3,30.12,NNW,338,0.0,0.0,45,0.00,,---,0.00,VWS V13.01,2013-03-04 14:00:00,
2013-03-04 09:05:00,52.2,31.5,30.13,WNW,292,0.0,0.0,45,0.00,,---,0.00,VWS V13.01,2013-03-04 14:05:00,
2013-03-04 09:10:00,52.2,31.5,30.12,NNW,338,0.0,0.0,45,0.00,,---,0.00,VWS V13.01,2013-03-04 14:10:00,
2013-03-04 09:15:00,52.3,31.1,30.13,NNE,22,0.0,0.0,44,0.00,,---,0.00,VWS V13.01,2013-03-04 14:15:00,
2013-03-04 09:20:00,52.7,31.4,30.13,NW,315,0.0,0.0,44,0.00,,---,0.00,VWS V13.01,2013-03-04 14:20:00,
2013-03-04 09:25:00,53.1,31.7,30.13,NNW,338,0.0,0.0,44,0.00,,---,0.00,VWS V13.01,2013-03-04 14:25:00,
2013-03-04 09:30:00,53.4,31.5,30.13,NNW,338,0.0,0.0,43,0.00,,---,0.00,VWS V13.01,2013-03-04 14:30:00,
2013-03-04 09:34:00,53.8,31.2,30.12,NNW,338,0.0,0.0,42,0.00,,---,0.00,VWS V13.01,2013-03-04 14:34:00,
2013-03-04 09:39:00,54.0,31.4,30.13,WNW,292,0.0,0.0,42,0.00,,---,0.00,VWS V13.01,2013-03-04 14:39:00,
2013-03-04 09:44:00,54.0,30.8,30.13,NNW,338,0.0,0.0,41,0.00,,---,0.00,VWS V13.01,2013-03-04 14:44:00,
2013-03-04 09:49:00,54.1,31.0,30.13,WNW,292,0.0,0.0,41,0.00,,---,0.00,VWS V13.01,2013-03-04 14:49:00,
2013-03-04 09:54:00,54.5,30.7,30.13,NE,45,0.0,0.0,40,0.00,,---,0.00,VWS V13.01,2013-03-04 14:54:00,
2013-03-04 09:59:00,54.9,31.0,30.13,North,0,0.0,0.0,40,0.00,,---,0.00,VWS V13.01,2013-03-04 14:59:00,
2013-03-04 10:04:00,55.0,31.2,30.12,NNE,22,0.0,0.0,40,0.00,,---,0.00,VWS V13.01,2013-03-04 15:04:00,
2013-03-04 10:09:00,55.6,31.7,30.12,North,0,0.0,0.0,40,0.00,,---,0.00,VWS V13.01,2013-03-04 15:09:00,
2013-03-04 10:14:00,55.8,31.2,30.12,NNW,338,0.0,0.0,39,0.00,,---,0.00,VWS V13.01,2013-03-04 15:14:00,
2013-03-04 10:19:00,56.1,31.5,30.12,NE,45,0.0,0.0,39,0.00,,---,0.00,VWS V13.01,2013-03-04 15:19:00,
2013-03-04 10:24:00,56.7,31.4,30.12,NNW,338,0.0,0.0,38,0.00,,---,0.00,VWS V13.01,2013-03-04 15:24:00,
2013-03-04 10:29:00,56.7,31.4,30.12,NNW,338,0.0,0.0,38,0.00,,---,0.00,VWS V13.01,2013-03-04 15:29:00,
2013-03-04 10:34:00,56.8,30.9,30.12,NNW,338,0.0,0.0,37,0.00,,---,0.00,VWS V13.01,2013-03-04 15:34:00,
2013-03-04 10:39:00,57.2,31.2,30.12,NNW,338,0.0,0.0,37,0.00,,---,0.00,VWS V13.01,2013-03-04 15:39:00,
2013-03-04 10:44:00,57.4,30.7,30.12,NNW,338,0.0,0.0,36,0.00,,---,0.00,VWS V13.01,2013-03-04 15:44:00,
2013-03-04 10:49:00,57.6,30.8,30.12,WNW,292,0.0,0.0,36,0.00,,---,0.00,VWS V13.01,2013-03-04 15:49:00,
2013-03-04 10:54:00,57.7,30.3,30.12,West,270,0.0,0.0,35,0.00,,---,0.00,VWS V13.01,2013-03-04 15:54:00,
2013-03-04 10:59:00,57.9,30.5,30.12,North,0,0.0,0.0,35,0.00,,---,0.00,VWS V13.01,2013-03-04 15:59:00,
2013-03-04 11:04:00,58.1,29.2,30.12,NE,45,0.0,0.0,33,0.00,,---,0.00,VWS V13.01,2013-03-04 16:04:00,
2013-03-04 11:09:00,58.5,29.5,30.12,NNW,338,0.0,0.0,33,0.00,,---,0.00,VWS V13.01,2013-03-04 16:09:00,
2013-03-04 11:14:00,58.6,28.9,30.12,NNW,338,0.0,0.0,32,0.00,,---,0.00,VWS V13.01,2013-03-04 16:14:00,
2013-03-04 11:19:00,58.6,28.1,30.12,West,270,0.0,0.0,31,0.00,,---,0.00,VWS V13.01,2013-03-04 16:19:00,
2013-03-04 11:24:00,58.8,29.0,30.12,North,0,0.0,0.0,32,0.00,,---,0.00,VWS V13.01,2013-03-04 16:24:00,
2013-03-04 11:29:00,59.4,29.5,30.11,North,0,0.0,0.0,32,0.00,,---,0.00,VWS V13.01,2013-03-04 16:29:00,
2013-03-04 11:34:00,59.7,29.1,30.11,WNW,292,0.0,0.0,31,0.00,,---,0.00,VWS V13.01,2013-03-04 16:34:00,
2013-03-04 11:39:00,59.9,28.4,30.11,NNW,338,0.0,0.0,30,0.00,,---,0.00,VWS V13.01,2013-03-04 16:39:00,
2013-03-04 11:44:00,60.1,27.7,30.11,NE,45,0.0,0.0,29,0.00,,---,0.00,VWS V13.01,2013-03-04 16:44:00,
2013-03-04 11:49:00,60.3,27.9,30.11,WNW,292,0.0,0.0,29,0.00,,---,0.00,VWS V13.01,2013-03-04 16:49:00,
2013-03-04 11:54:00,60.8,29.2,30.11,NNW,338,0.0,0.0,30,0.00,,---,0.00,VWS V13.01,2013-03-04 16:54:00,
2013-03-04 11:59:00,61.2,28.7,30.10,NE,45,0.0,0.0,29,0.00,,---,0.00,VWS V13.01,2013-03-04 16:59:00,
2013-03-04 12:04:00,61.3,28.8,30.11,NW,315,0.0,0.0,29,0.00,,---,0.00,VWS V13.01,2013-03-04 17:04:00,
2013-03-04 12:09:00,61.5,28.1,30.10,NNW,338,0.0,0.0,28,0.00,,---,0.00,VWS V13.01,2013-03-04 17:09:00,
2013-03-04 12:14:00,61.9,28.4,30.10,East,90,0.0,0.0,28,0.00,,---,0.00,VWS V13.01,2013-03-04 17:14:00,
2013-03-04 12:19:00,62.1,27.7,30.09,NW,315,0.0,0.0,27,0.00,,---,0.00,VWS V13.01,2013-03-04 17:19:00,
2013-03-04 12:24:00,62.2,27.9,30.09,East,90,0.0,0.0,27,0.00,,---,0.00,VWS V13.01,2013-03-04 17:24:00,
2013-03-04 12:29:00,62.8,28.3,30.09,NNW,338,0.0,0.0,27,0.00,,---,0.00,VWS V13.01,2013-03-04 17:29:00,
2013-03-04 12:34:00,63.3,28.8,30.08,SSW,202,0.0,0.0,27,0.00,,---,0.00,VWS V13.01,2013-03-04 17:34:00,
2013-03-04 12:39:00,64.0,29.4,30.08,NW,315,0.0,0.0,27,0.00,,---,0.00,VWS V13.01,2013-03-04 17:39:00,
2013-03-04 12:44:00,64.0,27.5,30.08,NNE,22,0.0,0.0,25,0.00,,---,0.00,VWS V13.01,2013-03-04 17:44:00,
2013-03-04 12:49:00,63.9,26.4,30.08,ENE,68,0.0,0.0,24,0.00,,---,0.00,VWS V13.01,2013-03-04 17:49:00,
2013-03-04 12:54:00,64.2,27.7,30.07,WNW,292,0.0,0.0,25,0.00,,---,0.00,VWS V13.01,2013-03-04 17:54:00,
2013-03-04 12:59:00,64.6,27.0,30.07,WNW,292,0.0,0.0,24,0.00,,---,0.00,VWS V13.01,2013-03-04 17:59:00,
2013-03-04 13:04:00,64.6,24.9,30.07,NE,45,0.0,0.0,22,0.00,,---,0.00,VWS V13.01,2013-03-04 18:04:00,
2013-03-04 13:09:00,65.1,26.4,30.07,NE,45,0.0,0.0,23,0.00,,---,0.00,VWS V13.01,2013-03-04 18:09:00,
2013-03-04 13:14:00,65.3,25.5,30.07,East,90,0.0,0.0,22,0.00,,---,0.00,VWS V13.01,2013-03-04 18:14:00,
2013-03-04 13:19:00,65.3,25.5,30.07,NNW,338,0.0,0.0,22,0.00,,---,0.00,VWS V13.01,2013-03-04 18:19:00,
2013-03-04 13:24:00,65.5,25.7,30.07,West,270,0.0,0.0,22,0.00,,---,0.00,VWS V13.01,2013-03-04 18:24:00,
2013-03-04 13:29:00,65.7,26.9,30.06,East,90,0.0,0.0,23,0.00,,---,0.00,VWS V13.01,2013-03-04 18:29:00,
2013-03-04 13:30:00,65.7,26.9,30.06,ESE,112,0.0,0.0,23,0.00,,---,0.00,VWS V13.01,2013-03-04 18:30:00,
2013-03-04 13:35:00,66.4,27.5,30.06,East,90,0.0,0.0,23,0.00,,---,0.00,VWS V13.01,2013-03-04 18:35:00,
2013-03-04 13:40:00,66.7,27.8,30.06,WNW,292,0.0,0.0,23,0.00,,---,0.00,VWS V13.01,2013-03-04 18:40:00,
2013-03-04 13:45:00,67.1,27.0,30.06,SW,225,0.0,0.0,22,0.00,,---,0.00,VWS V13.01,2013-03-04 18:45:00,
2013-03-04 13:50:00,67.6,28.5,30.06,SW,225,0.0,0.0,23,0.00,,---,0.00,VWS V13.01,2013-03-04 18:50:00,
2013-03-04 13:55:00,68.2,27.9,30.06,NW,315,0.0,0.0,22,0.00,,---,0.00,VWS V13.01,2013-03-04 18:55:00,
2013-03-04 14:00:00,68.4,24.5,30.05,NNW,338,0.0,0.0,19,0.00,,---,0.00,VWS V13.01,2013-03-04 19:00:00,
2013-03-04 14:05:00,68.2,24.4,30.05,NNW,338,0.0,0.0,19,0.00,,---,0.00,VWS V13.01,2013-03-04 19:05:00,
2013-03-04 14:10:00,68.2,24.4,30.05,SW,225,0.0,0.0,19,0.00,,---,0.00,VWS V13.01,2013-03-04 19:10:00,
2013-03-04 14:15:00,68.5,24.7,30.04,East,90,0.0,0.0,19,0.00,,---,0.00,VWS V13.01,2013-03-04 19:15:00,
2013-03-04 14:20:00,68.5,24.7,30.05,NNE,22,0.0,0.0,19,0.00,,---,0.00,VWS V13.01,2013-03-04 19:20:00,
2013-03-04 14:25:00,68.7,24.8,30.04,SW,225,0.0,0.0,19,0.00,,---,0.00,VWS V13.01,2013-03-04 19:25:00,
2013-03-04 14:30:00,68.7,24.8,30.05,NW,315,0.0,0.0,19,0.00,,---,0.00,VWS V13.01,2013-03-04 19:30:00,
2013-03-04 14:35:00,68.5,24.7,30.04,NE,45,0.0,0.0,19,0.00,,---,0.00,VWS V13.01,2013-03-04 19:35:00,
2013-03-04 14:40:00,68.9,25.0,30.04,ENE,68,0.0,0.0,19,0.00,,---,0.00,VWS V13.01,2013-03-04 19:40:00,
2013-03-04 14:45:00,69.4,25.4,30.04,SE,135,0.0,0.0,19,0.00,,---,0.00,VWS V13.01,2013-03-04 19:45:00,
2013-03-04 14:50:00,70.0,25.9,30.04,SE,135,0.0,0.0,19,0.00,,---,0.00,VWS V13.01,2013-03-04 19:50:00,
2013-03-04 14:55:00,70.3,26.2,30.04,South,180,0.0,0.0,19,0.00,,---,0.00,VWS V13.01,2013-03-04 19:55:00,
2013-03-04 15:00:00,70.5,26.3,30.04,ENE,68,0.0,0.0,19,0.00,,---,0.00,VWS V13.01,2013-03-04 20:00:00,
2013-03-04 15:05:00,70.5,26.3,30.04,East,90,0.0,0.0,19,0.00,,---,0.00,VWS V13.01,2013-03-04 20:05:00,
2013-03-04 15:10:00,69.8,25.7,30.04,ESE,112,0.0,0.0,19,0.00,,---,0.00,VWS V13.01,2013-03-04 20:10:00,
2013-03-04 15:15:00,70.2,26.0,30.04,WSW,248,0.0,0.0,19,0.00,,---,0.00,VWS V13.01,2013-03-04 20:15:00,
2013-03-04 15:20:00,70.7,26.5,30.04,West,270,0.0,0.0,19,0.00,,---,0.00,VWS V13.01,2013-03-04 20:20:00,
2013-03-04 15:25:00,70.7,26.5,30.03,WNW,292,0.0,0.0,19,0.00,,---,0.00,VWS V13.01,2013-03-04 20:25:00,
2013-03-04 15:30:00,70.7,26.5,30.04,WSW,248,0.0,0.0,19,0.00,,---,0.00,VWS V13.01,2013-03-04 20:30:00,
2013-03-04 15:35:00,70.9,26.6,30.04,ENE,68,0.0,0.0,19,0.00,,---,0.00,VWS V13.01,2013-03-04 20:35:00,
2013-03-04 15:40:00,70.7,26.5,30.04,NE,45,0.0,0.0,19,0.00,,---,0.00,VWS V13.01,2013-03-04 20:40:00,
2013-03-04 15:45:00,70.5,26.3,30.04,ENE,68,0.0,0.0,19,0.00,,---,0.00,VWS V13.01,2013-03-04 20:45:00,
2013-03-04 15:50:00,70.5,26.3,30.03,SE,135,0.0,0.0,19,0.00,,---,0.00,VWS V13.01,2013-03-04 20:50:00,
2013-03-04 15:55:00,70.2,26.0,30.03,NE,45,0.0,0.0,19,0.00,,---,0.00,VWS V13.01,2013-03-04 20:55:00,
2013-03-04 16:00:00,69.6,25.6,30.04,NE,45,0.0,0.0,19,0.00,,---,0.00,VWS V13.01,2013-03-04 21:00:00,
2013-03-04 16:05:00,69.4,25.4,30.04,ESE,112,0.0,0.0,19,0.00,,---,0.00,VWS V13.01,2013-03-04 21:05:00,
2013-03-04 16:10:00,69.4,25.4,30.04,SE,135,0.0,0.0,19,0.00,,---,0.00,VWS V13.01,2013-03-04 21:10:00,
2013-03-04 16:15:00,69.4,25.4,30.04,ESE,112,0.0,0.0,19,0.00,,---,0.00,VWS V13.01,2013-03-04 21:15:00,
2013-03-04 16:20:00,69.3,25.3,30.04,ENE,68,0.0,0.0,19,0.00,,---,0.00,VWS V13.01,2013-03-04 21:20:00,
2013-03-04 16:25:00,69.1,25.1,30.04,NNE,22,0.0,0.0,19,0.00,,---,0.00,VWS V13.01,2013-03-04 21:25:00,
2013-03-04 16:30:00,68.9,25.0,30.04,East,90,0.0,0.0,19,0.00,,---,0.00,VWS V13.01,2013-03-04 21:30:00,
2013-03-04 16:35:00,68.7,24.8,30.04,NE,45,0.0,0.0,19,0.00,,---,0.00,VWS V13.01,2013-03-04 21:35:00,
2013-03-04 16:40:00,68.4,28.1,30.04,ENE,68,0.0,0.0,22,0.00,,---,0.00,VWS V13.01,2013-03-04 21:40:00,
2013-03-04 16:45:00,68.2,29.0,30.04,East,90,0.0,0.0,23,0.00,,---,0.00,VWS V13.01,2013-03-04 21:45:00,
2013-03-04 16:50:00,67.6,29.6,30.04,East,90,0.0,0.0,24,0.00,,---,0.00,VWS V13.01,2013-03-04 21:50:00,
2013-03-04 16:55:00,67.5,30.4,30.04,East,90,0.0,0.0,25,0.00,,---,0.00,VWS V13.01,2013-03-04 21:55:00,
2013-03-04 17:00:00,67.1,30.1,30.04,SE,135,0.0,0.0,25,0.00,,---,0.00,VWS V13.01,2013-03-04 22:00:00,
2013-03-04 17:05:00,66.9,31.9,30.04,ENE,68,0.0,0.0,27,0.00,,---,0.00,VWS V13.01,2013-03-04 22:05:00,
2013-03-04 17:10:00,66.6,32.5,30.04,ESE,112,0.0,0.0,28,0.00,,---,0.00,VWS V13.01,2013-03-04 22:10:00,
2013-03-04 17:15:00,66.2,33.0,30.04,ESE,112,0.0,0.0,29,0.00,,---,0.00,VWS V13.01,2013-03-04 22:15:00,
2013-03-04 17:20:00,66.0,33.7,30.04,East,90,0.0,0.0,30,0.00,,---,0.00,VWS V13.01,2013-03-04 22:20:00,
2013-03-04 17:25:00,65.8,34.4,30.04,ENE,68,0.0,0.0,31,0.00,,---,0.00,VWS V13.01,2013-03-04 22:25:00,
2013-03-04 17:30:00,65.3,33.1,30.04,ESE,112,0.0,0.0,30,0.00,,---,0.00,VWS V13.01,2013-03-04 22:30:00,
2013-03-04 17:35:00,65.3,33.9,30.04,East,90,0.0,0.0,31,0.00,,---,0.00,VWS V13.01,2013-03-04 22:35:00,
2013-03-04 17:40:00,64.8,33.5,30.04,ENE,68,0.0,0.0,31,0.00,,---,0.00,VWS V13.01,2013-03-04 22:40:00,
2013-03-04 17:45:00,64.4,33.1,30.05,ENE,68,0.0,0.0,31,0.00,,---,0.00,VWS V13.01,2013-03-04 22:45:00,
2013-03-04 17:50:00,64.4,33.9,30.05,East,90,0.0,0.0,32,0.00,,---,0.00,VWS V13.01,2013-03-04 22:50:00,
2013-03-04 17:55:00,63.9,33.5,30.06,ESE,112,0.0,0.0,32,0.00,,---,0.00,VWS V13.01,2013-03-04 22:55:00,
2013-03-04 18:00:00,63.5,32.3,30.06,ENE,68,0.0,0.0,31,0.00,,---,0.00,VWS V13.01,2013-03-04 23:00:00,
2013-03-04 18:05:00,63.3,33.0,30.05,NE,45,0.0,0.0,32,0.00,,---,0.00,VWS V13.01,2013-03-04 23:05:00,
2013-03-04 18:10:00,63.0,32.7,30.05,ENE,68,0.0,0.0,32,0.00,,---,0.00,VWS V13.01,2013-03-04 23:10:00,
2013-03-04 18:15:00,62.8,32.5,30.05,East,90,0.0,0.0,32,0.00,,---,0.00,VWS V13.01,2013-03-04 23:15:00,
2013-03-04 18:20:00,62.6,32.3,30.06,ENE,68,0.0,0.0,32,0.00,,---,0.00,VWS V13.01,2013-03-04 23:20:00,
2013-03-04 18:25:00,62.2,32.0,30.05,ENE,68,0.0,0.0,32,0.00,,---,0.00,VWS V13.01,2013-03-04 23:25:00,
2013-03-04 18:30:00,61.7,31.6,30.06,NE,45,0.0,0.0,32,0.00,,---,0.00,VWS V13.01,2013-03-04 23:30:00,
2013-03-04 18:35:00,61.5,30.6,30.06,ENE,68,0.0,0.0,31,0.00,,---,0.00,VWS V13.01,2013-03-04 23:35:00,
2013-03-04 18:40:00,61.5,29.8,30.06,ENE,68,0.0,0.0,30,0.00,,---,0.00,VWS V13.01,2013-03-04 23:40:00,
2013-03-04 18:45:00,61.0,28.5,30.06,ENE,68,0.0,0.0,29,0.00,,---,0.00,VWS V13.01,2013-03-04 23:45:00,
2013-03-04 18:50:00,61.0,27.7,30.07,ENE,68,0.0,0.0,28,0.00,,---,0.00,VWS V13.01,2013-03-04 23:50:00,
2013-03-04 18:55:00,60.4,26.3,30.07,ENE,68,0.0,0.0,27,0.00,,---,0.00,VWS V13.01,2013-03-04 23:55:00,
2013-03-04 19:00:00,60.3,26.2,30.07,East,90,0.0,0.0,27,0.00,,---,0.00,VWS V13.01,2013-03-05 00:00:00,
2013-03-04 19:05:00,60.3,26.2,30.06,East,90,0.0,0.0,27,0.00,,---,0.00,VWS V13.01,2013-03-05 00:05:00,
2013-03-04 19:10:00,59.9,27.6,30.06,East,90,0.0,0.0,29,0.00,,---,0.00,VWS V13.01,2013-03-05 00:10:00,
2013-03-04 19:15:00,59.7,27.4,30.06,East,90,0.0,0.0,29,0.00,,---,0.00,VWS V13.01,2013-03-05 00:15:00,
2013-03-04 19:20:00,59.4,27.9,30.06,East,90,0.0,0.0,30,0.00,,---,0.00,VWS V13.01,2013-03-05 00:20:00,
2013-03-04 19:25:00,59.2,27.8,30.06,East,90,0.0,0.0,30,0.00,,---,0.00,VWS V13.01,2013-03-05 00:25:00,
2013-03-04 19:30:00,58.8,27.5,30.06,East,90,0.0,0.0,30,0.00,,---,0.00,VWS V13.01,2013-03-05 00:30:00,
2013-03-04 19:35:00,58.6,28.1,30.06,East,90,0.0,0.0,31,0.00,,---,0.00,VWS V13.01,2013-03-05 00:35:00,
2013-03-04 19:40:00,58.5,28.0,30.06,East,90,0.0,0.0,31,0.00,,---,0.00,VWS V13.01,2013-03-05 00:40:00,
2013-03-04 19:45:00,58.1,27.6,30.06,East,90,0.0,0.0,31,0.00,,---,0.00,VWS V13.01,2013-03-05 00:45:00,
2013-03-04 19:50:00,57.9,28.3,30.07,East,90,0.0,0.0,32,0.00,,---,0.00,VWS V13.01,2013-03-05 00:50:00,
2013-03-04 19:55:00,57.7,28.9,30.07,East,90,0.0,0.0,33,0.00,,---,0.00,VWS V13.01,2013-03-05 00:55:00,
2013-03-04 20:00:00,57.6,28.7,30.07,East,90,0.0,0.0,33,0.00,,---,0.00,VWS V13.01,2013-03-05 01:00:00,
2013-03-04 20:05:00,57.4,29.3,30.07,East,90,0.0,0.0,34,0.00,,---,0.00,VWS V13.01,2013-03-05 01:05:00,
2013-03-04 20:10:00,57.0,29.0,30.08,East,90,0.0,0.0,34,0.00,,---,0.00,VWS V13.01,2013-03-05 01:10:00,
2013-03-04 20:15:00,56.8,29.5,30.08,East,90,0.0,0.0,35,0.00,,---,0.00,VWS V13.01,2013-03-05 01:15:00,
2013-03-04 20:20:00,56.5,29.9,30.08,East,90,0.0,0.0,36,0.00,,---,0.00,VWS V13.01,2013-03-05 01:20:00,
2013-03-04 20:25:00,56.3,30.4,30.08,East,90,0.0,0.0,37,0.00,,---,0.00,VWS V13.01,2013-03-05 01:25:00,
2013-03-04 20:30:00,56.1,30.9,30.08,East,90,0.0,0.0,38,0.00,,---,0.00,VWS V13.01,2013-03-05 01:30:00,
2013-03-04 20:35:00,55.9,30.7,30.08,East,90,0.0,0.0,38,0.00,,---,0.00,VWS V13.01,2013-03-05 01:35:00,
2013-03-04 20:40:00,55.8,31.2,30.09,East,90,0.0,0.0,39,0.00,,---,0.00,VWS V13.01,2013-03-05 01:40:00,
2013-03-04 20:45:00,55.6,31.7,30.09,East,90,0.0,0.0,40,0.00,,---,0.00,VWS V13.01,2013-03-05 01:45:00,
2013-03-04 20:50:00,55.2,31.3,30.09,East,90,0.0,0.0,40,0.00,,---,0.00,VWS V13.01,2013-03-05 01:50:00,
2013-03-04 20:55:00,55.0,31.8,30.09,East,90,0.0,0.0,41,0.00,,---,0.00,VWS V13.01,2013-03-05 01:55:00,
2013-03-04 21:00:00,55.0,32.4,30.09,East,90,0.0,0.0,42,0.00,,---,0.00,VWS V13.01,2013-03-05 02:00:00,
2013-03-04 21:05:00,54.9,32.2,30.09,East,90,0.0,0.0,42,0.00,,---,0.00,VWS V13.01,2013-03-05 02:05:00,
2013-03-04 21:10:00,54.9,32.8,30.09,East,90,0.0,0.0,43,0.00,,---,0.00,VWS V13.01,2013-03-05 02:10:00,
2013-03-04 21:15:00,54.5,32.5,30.09,East,90,0.0,0.0,43,0.00,,---,0.00,VWS V13.01,2013-03-05 02:15:00,
2013-03-04 21:20:00,54.3,32.3,30.09,East,90,0.0,0.0,43,0.00,,---,0.00,VWS V13.01,2013-03-05 02:20:00,
2013-03-04 21:25:00,54.3,32.9,30.09,East,90,0.0,0.0,44,0.00,,---,0.00,VWS V13.01,2013-03-05 02:25:00,
2013-03-04 21:30:00,54.1,32.7,30.09,East,90,0.0,0.0,44,0.00,,---,0.00,VWS V13.01,2013-03-05 02:30:00,
2013-03-04 21:35:00,54.0,32.6,30.09,East,90,0.0,0.0,44,0.00,,---,0.00,VWS V13.01,2013-03-05 02:35:00,
2013-03-04 21:40:00,53.8,33.0,30.09,East,90,0.0,0.0,45,0.00,,---,0.00,VWS V13.01,2013-03-05 02:40:00,
2013-03-04 21:45:00,53.8,33.0,30.09,East,90,0.0,0.0,45,0.00,,---,0.00,VWS V13.01,2013-03-05 02:45:00,
2013-03-04 21:50:00,53.8,33.5,30.09,East,90,0.0,0.0,46,0.00,,---,0.00,VWS V13.01,2013-03-05 02:50:00,
2013-03-04 21:55:00,53.8,33.5,30.10,East,90,0.0,0.0,46,0.00,,---,0.00,VWS V13.01,2013-03-05 02:55:00,
2013-03-04 22:00:00,53.4,33.7,30.10,East,90,0.0,0.0,47,0.00,,---,0.00,VWS V13.01,2013-03-05 03:00:00,
2013-03-04 22:05:00,53.2,33.5,30.10,East,90,0.0,0.0,47,0.00,,---,0.00,VWS V13.01,2013-03-05 03:05:00,
2013-03-04 22:10:00,53.2,34.1,30.09,East,90,0.0,0.0,48,0.00,,---,0.00,VWS V13.01,2013-03-05 03:10:00,
2013-03-04 22:15:00,53.1,33.9,30.09,East,90,0.0,0.0,48,0.00,,---,0.00,VWS V13.01,2013-03-05 03:15:00,
2013-03-04 22:20:00,53.1,34.4,30.09,East,90,0.0,0.0,49,0.00,,---,0.00,VWS V13.01,2013-03-05 03:20:00,
2013-03-04 22:25:00,52.9,34.3,30.09,East,90,0.0,0.0,49,0.00,,---,0.00,VWS V13.01,2013-03-05 03:25:00,
2013-03-04 22:30:00,52.7,34.6,30.09,East,90,0.0,0.0,50,0.00,,---,0.00,VWS V13.01,2013-03-05 03:30:00,
2013-03-04 22:35:00,52.7,34.6,30.09,East,90,0.0,0.0,50,0.00,,---,0.00,VWS V13.01,2013-03-05 03:35:00,
2013-03-04 22:40:00,52.5,35.4,30.09,East,90,0.0,0.0,52,0.00,,---,0.00,VWS V13.01,2013-03-05 03:40:00,
2013-03-04 22:45:00,52.5,35.4,30.09,East,90,0.0,0.0,52,0.00,,---,0.00,VWS V13.01,2013-03-05 03:45:00,
2013-03-04 22:50:00,52.5,35.9,30.09,East,90,0.0,0.0,53,0.00,,---,0.00,VWS V13.01,2013-03-05 03:50:00,
2013-03-04 22:55:00,52.5,35.9,30.09,East,90,0.0,0.0,53,0.00,,---,0.00,VWS V13.01,2013-03-05 03:55:00,
2013-03-04 23:00:00,52.5,36.4,30.09,East,90,0.0,0.0,54,0.00,,---,0.00,VWS V13.01,2013-03-05 04:00:00,
2013-03-04 23:05:00,52.2,36.0,30.09,East,90,0.0,0.0,54,0.00,,---,0.00,VWS V13.01,2013-03-05 04:05:00,
2013-03-04 23:10:00,52.2,36.0,30.09,East,90,0.0,0.0,54,0.00,,---,0.00,VWS V13.01,2013-03-05 04:10:00,
2013-03-04 23:15:00,52.2,36.5,30.08,East,90,0.0,0.0,55,0.00,,---,0.00,VWS V13.01,2013-03-05 04:15:00,
2013-03-04 23:20:00,52.2,36.5,30.09,East,90,0.0,0.0,55,0.00,,---,0.00,VWS V13.01,2013-03-05 04:20:00,
2013-03-04 23:25:00,52.0,36.3,30.08,East,90,0.0,0.0,55,0.00,,---,0.00,VWS V13.01,2013-03-05 04:25:00,
2013-03-04 23:30:00,52.0,36.8,30.09,East,90,0.0,0.0,56,0.00,,---,0.00,VWS V13.01,2013-03-05 04:30:00,
2013-03-04 23:35:00,51.8,36.6,30.08,East,90,0.0,0.0,56,0.00,,---,0.00,VWS V13.01,2013-03-05 04:35:00,
2013-03-04 23:40:00,51.6,36.5,30.08,East,90,0.0,0.0,56,0.00,,---,0.00,VWS V13.01,2013-03-05 04:40:00,
2013-03-04 23:45:00,51.4,36.3,30.08,East,90,0.0,0.0,56,0.00,,---,0.00,VWS V13.01,2013-03-05 04:45:00,
2013-03-04 23:50:00,51.4,36.7,30.08,East,90,0.0,0.0,57,0.00,,---,0.00,VWS V13.01,2013-03-05 04:50:00,
2013-03-04 23:55:00,51.4,36.7,30.08,East,90,0.0,0.0,57,0.00,,---,0.00,VWS V13.01,2013-03-05 04:55:00,